sensor_id;sensor_type;location;lat;lon;timestamp;pressure;altitude;pressure_sealevel;temperature;humidity
34712;BME280;20941;42.408;25.634;2022-12-18T00:01:31;100150.22;;;12.00;100.00
34712;BME280;20941;42.408;25.634;2022-12-18T00:03:58;100128.03;;;11.55;100.00
34712;BME280;20941;42.408;25.634;2022-12-18T00:06:26;100173.19;;;11.69;100.00
34712;BME280;20941;42.408;25.634;2022-12-18T00:08:52;100177.38;;;11.53;100.00
34712;BME280;20941;42.408;25.634;2022-12-18T00:11:20;100191.78;;;11.27;100.00
34712;BME280;20941;42.408;25.634;2022-12-18T00:13:46;100163.09;;;10.71;100.00
34712;BME280;20941;42.408;25.634;2022-12-18T00:16:15;100204.72;;;10.74;100.00
34712;BME280;20941;42.408;25.634;2022-12-18T00:18:42;100220.56;;;10.65;100.00
34712;BME280;20941;42.408;25.634;2022-12-18T00:21:09;100223.06;;;10.67;100.00
34712;BME280;20941;42.408;25.634;2022-12-18T00:23:36;100197.91;;;10.51;100.00
34712;BME280;20941;42.408;25.634;2022-12-18T00:26:05;100232.47;;;10.57;100.00
34712;BME280;20941;42.408;25.634;2022-12-18T00:28:30;100239.47;;;10.59;100.00
34712;BME280;20941;42.408;25.634;2022-12-18T00:31:12;100251.50;;;10.65;100.00
34712;BME280;20941;42.408;25.634;2022-12-18T00:33:38;100247.41;;;10.52;100.00
34712;BME280;20941;42.408;25.634;2022-12-18T00:36:10;100237.03;;;10.48;100.00
34712;BME280;20941;42.408;25.634;2022-12-18T00:38:36;100244.09;;;10.45;100.00
34712;BME280;20941;42.408;25.634;2022-12-18T00:41:02;100261.97;;;10.59;100.00
34712;BME280;20941;42.408;25.634;2022-12-18T00:43:28;100269.09;;;10.47;100.00
34712;BME280;20941;42.408;25.634;2022-12-18T00:45:53;100276.50;;;10.27;100.00
34712;BME280;20941;42.408;25.634;2022-12-18T00:48:19;100285.03;;;10.17;100.00
34712;BME280;20941;42.408;25.634;2022-12-18T00:50:45;100195.38;;;9.70;100.00
34712;BME280;20941;42.408;25.634;2022-12-18T00:53:11;100245.69;;;10.11;100.00
34712;BME280;20941;42.408;25.634;2022-12-18T00:55:39;100243.47;;;10.08;100.00
34712;BME280;20941;42.408;25.634;2022-12-18T00:58:04;100254.09;;;10.17;100.00
34712;BME280;20941;42.408;25.634;2022-12-18T01:00:30;100250.72;;;10.15;100.00
34712;BME280;20941;42.408;25.634;2022-12-18T01:02:55;100250.66;;;10.25;100.00
34712;BME280;20941;42.408;25.634;2022-12-18T01:05:21;100246.97;;;10.30;100.00
34712;BME280;20941;42.408;25.634;2022-12-18T01:07:46;100238.22;;;10.31;100.00
34712;BME280;20941;42.408;25.634;2022-12-18T01:10:12;100243.22;;;10.44;100.00
34712;BME280;20941;42.408;25.634;2022-12-18T01:12:38;100210.81;;;10.18;100.00
34712;BME280;20941;42.408;25.634;2022-12-18T01:15:05;100256.66;;;10.53;100.00
34712;BME280;20941;42.408;25.634;2022-12-18T01:17:31;100245.38;;;10.58;100.00
34712;BME280;20941;42.408;25.634;2022-12-18T01:19:57;100234.16;;;10.53;100.00
34712;BME280;20941;42.408;25.634;2022-12-18T01:22:22;100257.06;;;10.70;100.00
34712;BME280;20941;42.408;25.634;2022-12-18T01:24:48;100269.50;;;10.64;100.00
34712;BME280;20941;42.408;25.634;2022-12-18T01:27:14;100273.59;;;10.48;100.00
34712;BME280;20941;42.408;25.634;2022-12-18T01:29:39;100276.72;;;10.41;100.00
34712;BME280;20941;42.408;25.634;2022-12-18T01:32:05;100250.13;;;10.23;100.00
34712;BME280;20941;42.408;25.634;2022-12-18T01:34:30;100238.28;;;10.26;100.00
34712;BME280;20941;42.408;25.634;2022-12-18T01:36:56;100260.16;;;10.39;100.00
34712;BME280;20941;42.408;25.634;2022-12-18T01:39:21;100273.03;;;10.46;100.00
34712;BME280;20941;42.408;25.634;2022-12-18T01:41:47;100273.09;;;10.35;100.00
34712;BME280;20941;42.408;25.634;2022-12-18T01:44:55;100269.19;;;10.26;100.00
34712;BME280;20941;42.408;25.634;2022-12-18T01:47:30;100279.06;;;10.23;100.00
34712;BME280;20941;42.408;25.634;2022-12-18T01:49:59;100259.81;;;10.01;100.00
34712;BME280;20941;42.408;25.634;2022-12-18T01:52:31;100268.28;;;9.96;100.00
34712;BME280;20941;42.408;25.634;2022-12-18T01:54:59;100262.97;;;9.84;100.00
34712;BME280;20941;42.408;25.634;2022-12-18T01:57:26;100268.88;;;9.88;100.00
34712;BME280;20941;42.408;25.634;2022-12-18T01:59:54;100268.41;;;9.70;100.00
34712;BME280;20941;42.408;25.634;2022-12-18T02:02:22;100266.78;;;9.59;100.00
34712;BME280;20941;42.408;25.634;2022-12-18T02:04:47;100279.06;;;9.68;100.00
34712;BME280;20941;42.408;25.634;2022-12-18T02:07:28;100274.56;;;9.67;100.00
34712;BME280;20941;42.408;25.634;2022-12-18T02:10:11;100299.78;;;9.88;100.00
34712;BME280;20941;42.408;25.634;2022-12-18T02:13:08;100298.06;;;9.92;100.00
34712;BME280;20941;42.408;25.634;2022-12-18T02:15:54;100312.13;;;9.87;100.00
34712;BME280;20941;42.408;25.634;2022-12-18T02:18:45;100270.09;;;9.61;100.00
34712;BME280;20941;42.408;25.634;2022-12-18T02:21:25;100247.69;;;9.51;100.00
34712;BME280;20941;42.408;25.634;2022-12-18T02:26:59;100295.59;;;9.80;100.00
34712;BME280;20941;42.408;25.634;2022-12-18T02:29:37;100272.88;;;9.66;100.00
34712;BME280;20941;42.408;25.634;2022-12-18T02:32:08;100286.94;;;9.71;100.00
34712;BME280;20941;42.408;25.634;2022-12-18T02:34:38;100263.97;;;9.48;100.00
34712;BME280;20941;42.408;25.634;2022-12-18T02:37:09;100273.00;;;9.45;100.00
34712;BME280;20941;42.408;25.634;2022-12-18T02:39:38;100292.03;;;9.54;100.00
34712;BME280;20941;42.408;25.634;2022-12-18T02:42:05;100282.50;;;9.50;100.00
34712;BME280;20941;42.408;25.634;2022-12-18T02:44:35;100288.69;;;9.46;100.00
34712;BME280;20941;42.408;25.634;2022-12-18T02:47:10;100275.25;;;9.33;100.00
34712;BME280;20941;42.408;25.634;2022-12-18T02:57:56;100297.75;;;9.23;100.00
34712;BME280;20941;42.408;25.634;2022-12-18T03:00:29;100310.09;;;9.22;100.00
34712;BME280;20941;42.408;25.634;2022-12-18T03:03:06;100295.50;;;9.14;100.00
34712;BME280;20941;42.408;25.634;2022-12-18T03:05:43;100318.78;;;9.36;100.00
34712;BME280;20941;42.408;25.634;2022-12-18T03:08:32;100314.53;;;9.43;100.00
34712;BME280;20941;42.408;25.634;2022-12-18T03:11:10;100313.97;;;9.46;100.00
34712;BME280;20941;42.408;25.634;2022-12-18T03:13:46;100316.78;;;9.52;100.00
34712;BME280;20941;42.408;25.634;2022-12-18T03:16:19;100312.25;;;9.56;100.00
34712;BME280;20941;42.408;25.634;2022-12-18T03:19:01;100286.19;;;9.45;100.00
34712;BME280;20941;42.408;25.634;2022-12-18T03:21:32;100312.25;;;9.56;100.00
34712;BME280;20941;42.408;25.634;2022-12-18T03:24:01;100312.25;;;9.56;100.00
34712;BME280;20941;42.408;25.634;2022-12-18T03:26:30;100295.16;;;9.47;100.00
34712;BME280;20941;42.408;25.634;2022-12-18T03:29:04;100302.72;;;9.57;100.00
34712;BME280;20941;42.408;25.634;2022-12-18T03:31:32;100280.84;;;9.43;100.00
34712;BME280;20941;42.408;25.634;2022-12-18T03:34:01;100303.53;;;9.57;100.00
34712;BME280;20941;42.408;25.634;2022-12-18T03:36:28;100312.81;;;9.58;100.00
34712;BME280;20941;42.408;25.634;2022-12-18T03:38:54;100323.44;;;9.66;100.00
34712;BME280;20941;42.408;25.634;2022-12-18T03:41:31;100314.50;;;9.54;100.00
34712;BME280;20941;42.408;25.634;2022-12-18T03:52:28;100355.19;;;9.72;100.00
34712;BME280;20941;42.408;25.634;2022-12-18T03:54:58;100345.66;;;9.62;100.00
34712;BME280;20941;42.408;25.634;2022-12-18T03:57:27;100359.97;;;9.61;100.00
34712;BME280;20941;42.408;25.634;2022-12-18T04:00:00;100342.91;;;9.37;100.00
34712;BME280;20941;42.408;25.634;2022-12-18T04:02:28;100370.94;;;9.57;100.00
34712;BME280;20941;42.408;25.634;2022-12-18T04:04:58;100381.31;;;9.67;100.00
34712;BME280;20941;42.408;25.634;2022-12-18T04:07:25;100376.31;;;9.59;100.00
34712;BME280;20941;42.408;25.634;2022-12-18T04:09:53;100388.59;;;9.73;100.00
34712;BME280;20941;42.408;25.634;2022-12-18T04:12:20;100387.50;;;9.64;100.00
34712;BME280;20941;42.408;25.634;2022-12-18T04:14:45;100391.16;;;9.64;100.00
34712;BME280;20941;42.408;25.634;2022-12-18T04:17:11;100385.56;;;9.59;100.00
34712;BME280;20941;42.408;25.634;2022-12-18T04:19:36;100375.75;;;9.46;100.00
34712;BME280;20941;42.408;25.634;2022-12-18T04:22:02;100396.47;;;9.66;100.00
34712;BME280;20941;42.408;25.634;2022-12-18T04:24:27;100403.22;;;9.70;100.00
34712;BME280;20941;42.408;25.634;2022-12-18T04:26:53;100365.06;;;9.54;100.00
34712;BME280;20941;42.408;25.634;2022-12-18T04:29:19;100390.84;;;9.76;100.00
34712;BME280;20941;42.408;25.634;2022-12-18T04:31:44;100385.78;;;9.73;100.00
34712;BME280;20941;42.408;25.634;2022-12-18T04:34:10;100397.00;;;9.89;100.00
34712;BME280;20941;42.408;25.634;2022-12-18T04:36:36;100371.47;;;9.70;100.00
34712;BME280;20941;42.408;25.634;2022-12-18T04:39:02;100370.63;;;9.74;100.00
34712;BME280;20941;42.408;25.634;2022-12-18T04:41:27;100381.84;;;9.74;100.00
34712;BME280;20941;42.408;25.634;2022-12-18T04:43:53;100384.66;;;9.79;100.00
34712;BME280;20941;42.408;25.634;2022-12-18T04:46:18;100414.97;;;9.98;100.00
34712;BME280;20941;42.408;25.634;2022-12-18T04:48:45;100429.53;;;10.05;100.00
34712;BME280;20941;42.408;25.634;2022-12-18T04:51:12;100393.09;;;9.85;100.00
34712;BME280;20941;42.408;25.634;2022-12-18T04:53:37;100430.13;;;10.02;100.00
34712;BME280;20941;42.408;25.634;2022-12-18T04:56:08;100395.31;;;9.83;100.00
34712;BME280;20941;42.408;25.634;2022-12-18T04:58:34;100441.63;;;10.06;100.00
34712;BME280;20941;42.408;25.634;2022-12-18T05:01:00;100435.16;;;10.10;100.00
34712;BME280;20941;42.408;25.634;2022-12-18T05:03:26;100430.63;;;10.15;100.00
34712;BME280;20941;42.408;25.634;2022-12-18T05:05:51;100424.44;;;10.12;100.00
34712;BME280;20941;42.408;25.634;2022-12-18T05:08:18;100437.06;;;10.25;100.00
34712;BME280;20941;42.408;25.634;2022-12-18T05:10:43;100425.84;;;10.20;100.00
34712;BME280;20941;42.408;25.634;2022-12-18T05:13:09;100423.81;;;10.31;100.00
34712;BME280;20941;42.408;25.634;2022-12-18T05:15:35;100439.19;;;10.54;100.00
34712;BME280;20941;42.408;25.634;2022-12-18T05:18:01;100424.00;;;10.55;100.00
34712;BME280;20941;42.408;25.634;2022-12-18T05:20:28;100432.59;;;10.80;100.00
34712;BME280;20941;42.408;25.634;2022-12-18T05:22:53;100426.13;;;10.79;100.00
34712;BME280;20941;42.408;25.634;2022-12-18T05:25:19;100435.88;;;10.92;100.00
34712;BME280;20941;42.408;25.634;2022-12-18T05:27:46;100430.34;;;10.82;100.00
34712;BME280;20941;42.408;25.634;2022-12-18T05:30:12;100444.03;;;10.99;100.00
34712;BME280;20941;42.408;25.634;2022-12-18T05:32:38;100439.78;;;11.01;99.33
34712;BME280;20941;42.408;25.634;2022-12-18T05:35:05;100451.25;;;11.10;99.35
34712;BME280;20941;42.408;25.634;2022-12-18T05:37:31;100434.97;;;11.02;98.49
34712;BME280;20941;42.408;25.634;2022-12-18T05:39:56;100453.22;;;11.10;96.94
34712;BME280;20941;42.408;25.634;2022-12-18T05:42:22;100465.78;;;11.22;93.87
34712;BME280;20941;42.408;25.634;2022-12-18T05:44:47;100458.72;;;11.25;92.79
34712;BME280;20941;42.408;25.634;2022-12-18T05:47:13;100460.97;;;11.28;92.87
34712;BME280;20941;42.408;25.634;2022-12-18T05:49:39;100461.25;;;11.27;92.51
34712;BME280;20941;42.408;25.634;2022-12-18T05:52:04;100471.59;;;11.36;92.80
34712;BME280;20941;42.408;25.634;2022-12-18T05:54:30;100441.63;;;11.16;91.73
34712;BME280;20941;42.408;25.634;2022-12-18T05:56:57;100464.28;;;11.35;89.89
34712;BME280;20941;42.408;25.634;2022-12-18T05:59:23;100453.41;;;11.23;88.90
34712;BME280;20941;42.408;25.634;2022-12-18T06:01:49;100470.00;;;11.25;88.75
34712;BME280;20941;42.408;25.634;2022-12-18T06:04:15;100480.69;;;11.28;88.55
34712;BME280;20941;42.408;25.634;2022-12-18T06:06:40;100420.97;;;10.91;89.44
34712;BME280;20941;42.408;25.634;2022-12-18T06:09:06;100465.31;;;11.10;90.06
34712;BME280;20941;42.408;25.634;2022-12-18T06:11:38;100488.91;;;11.19;89.52
34712;BME280;20941;42.408;25.634;2022-12-18T06:14:05;100480.84;;;11.07;88.29
34712;BME280;20941;42.408;25.634;2022-12-18T06:16:31;100462.06;;;10.93;88.39
34712;BME280;20941;42.408;25.634;2022-12-18T06:19:02;100500.56;;;11.02;87.77
34712;BME280;20941;42.408;25.634;2022-12-18T06:21:28;100497.78;;;10.97;87.27
34712;BME280;20941;42.408;25.634;2022-12-18T06:23:54;100508.19;;;10.97;87.41
34712;BME280;20941;42.408;25.634;2022-12-18T06:26:20;100495.06;;;10.82;87.23
34712;BME280;20941;42.408;25.634;2022-12-18T06:28:45;100518.38;;;10.87;87.82
34712;BME280;20941;42.408;25.634;2022-12-18T06:31:11;100523.16;;;10.87;87.67
34712;BME280;20941;42.408;25.634;2022-12-18T06:33:38;100534.72;;;10.85;87.46
34712;BME280;20941;42.408;25.634;2022-12-18T06:36:09;100520.94;;;10.79;87.10
34712;BME280;20941;42.408;25.634;2022-12-18T06:38:36;100543.13;;;10.90;86.46
34712;BME280;20941;42.408;25.634;2022-12-18T06:41:14;100546.75;;;10.96;85.92
34712;BME280;20941;42.408;25.634;2022-12-18T06:43:42;100530.75;;;10.86;85.73
34712;BME280;20941;42.408;25.634;2022-12-18T06:46:08;100537.25;;;10.87;85.25
34712;BME280;20941;42.408;25.634;2022-12-18T06:48:34;100539.47;;;10.90;85.25
34712;BME280;20941;42.408;25.634;2022-12-18T06:51:00;100566.72;;;11.00;85.39
34712;BME280;20941;42.408;25.634;2022-12-18T06:53:25;100553.53;;;10.90;85.39
34712;BME280;20941;42.408;25.634;2022-12-18T06:55:51;100543.44;;;10.84;84.15
34712;BME280;20941;42.408;25.634;2022-12-18T06:58:16;100545.72;;;10.82;84.80
34712;BME280;20941;42.408;25.634;2022-12-18T07:00:43;100555.28;;;10.81;84.85
34712;BME280;20941;42.408;25.634;2022-12-18T07:03:08;100589.00;;;10.91;83.99
34712;BME280;20941;42.408;25.634;2022-12-18T07:05:34;100596.91;;;10.89;84.16
34712;BME280;20941;42.408;25.634;2022-12-18T07:08:04;100596.06;;;10.83;84.42
34712;BME280;20941;42.408;25.634;2022-12-18T07:10:30;100590.97;;;10.90;84.60
34712;BME280;20941;42.408;25.634;2022-12-18T07:12:55;100568.88;;;10.63;84.14
34712;BME280;20941;42.408;25.634;2022-12-18T07:15:21;100595.50;;;10.81;83.92
34712;BME280;20941;42.408;25.634;2022-12-18T07:17:46;100596.94;;;10.79;84.44
34712;BME280;20941;42.408;25.634;2022-12-18T07:20:12;100594.13;;;10.79;84.69
34712;BME280;20941;42.408;25.634;2022-12-18T07:22:37;100574.19;;;10.65;83.96
34712;BME280;20941;42.408;25.634;2022-12-18T07:25:03;100549.78;;;10.50;83.45
34712;BME280;20941;42.408;25.634;2022-12-18T07:27:29;100596.97;;;10.68;83.03
34712;BME280;20941;42.408;25.634;2022-12-18T07:29:55;100561.56;;;10.57;83.36
34712;BME280;20941;42.408;25.634;2022-12-18T07:32:20;100606.50;;;10.78;83.38
34712;BME280;20941;42.408;25.634;2022-12-18T07:34:46;100588.50;;;10.73;83.58
34712;BME280;20941;42.408;25.634;2022-12-18T07:37:11;100602.00;;;10.76;83.48
34712;BME280;20941;42.408;25.634;2022-12-18T07:39:37;100613.28;;;10.71;82.95
34712;BME280;20941;42.408;25.634;2022-12-18T07:42:02;100609.41;;;10.57;82.56
34712;BME280;20941;42.408;25.634;2022-12-18T07:44:47;100627.34;;;10.66;82.59
34712;BME280;20941;42.408;25.634;2022-12-18T07:47:12;100600.69;;;10.53;82.45
34712;BME280;20941;42.408;25.634;2022-12-18T07:49:38;100608.28;;;10.48;82.80
34712;BME280;20941;42.408;25.634;2022-12-18T07:52:03;100597.88;;;10.43;82.85
34712;BME280;20941;42.408;25.634;2022-12-18T07:54:29;100604.63;;;10.42;82.40
34712;BME280;20941;42.408;25.634;2022-12-18T07:56:54;100613.31;;;10.51;82.37
34712;BME280;20941;42.408;25.634;2022-12-18T07:59:20;100631.34;;;10.55;81.92
34712;BME280;20941;42.408;25.634;2022-12-18T08:01:45;100620.34;;;10.48;81.49
34712;BME280;20941;42.408;25.634;2022-12-18T08:04:11;100643.72;;;10.49;81.23
34712;BME280;20941;42.408;25.634;2022-12-18T08:06:36;100660.59;;;10.54;81.45
34712;BME280;20941;42.408;25.634;2022-12-18T08:09:02;100638.09;;;10.49;81.65
34712;BME280;20941;42.408;25.634;2022-12-18T08:11:28;100649.59;;;10.57;81.44
34712;BME280;20941;42.408;25.634;2022-12-18T08:13:54;100653.84;;;10.55;81.17
34712;BME280;20941;42.408;25.634;2022-12-18T08:16:20;100599.84;;;10.22;81.29
34712;BME280;20941;42.408;25.634;2022-12-18T08:18:46;100667.06;;;10.59;81.19
34712;BME280;20941;42.408;25.634;2022-12-18T08:21:14;100651.03;;;10.50;80.95
34712;BME280;20941;42.408;25.634;2022-12-18T08:23:40;100663.94;;;10.61;80.21
34712;BME280;20941;42.408;25.634;2022-12-18T08:26:07;100651.31;;;10.43;80.19
34712;BME280;20941;42.408;25.634;2022-12-18T08:28:33;100624.00;;;10.33;80.64
34712;BME280;20941;42.408;25.634;2022-12-18T08:30:58;100667.59;;;10.56;80.84
34712;BME280;20941;42.408;25.634;2022-12-18T08:33:24;100642.31;;;10.41;80.10
34712;BME280;20941;42.408;25.634;2022-12-18T08:35:50;100676.34;;;10.55;80.12
34712;BME280;20941;42.408;25.634;2022-12-18T08:38:15;100664.81;;;10.51;79.88
34712;BME280;20941;42.408;25.634;2022-12-18T08:40:41;100693.50;;;10.48;79.91
34712;BME280;20941;42.408;25.634;2022-12-18T08:43:09;100687.59;;;10.55;79.80
34712;BME280;20941;42.408;25.634;2022-12-18T08:45:54;100679.16;;;10.50;79.66
34712;BME280;20941;42.408;25.634;2022-12-18T08:48:19;100672.69;;;10.49;80.72
34712;BME280;20941;42.408;25.634;2022-12-18T08:50:56;100683.06;;;10.59;82.22
34712;BME280;20941;42.408;25.634;2022-12-18T08:53:22;100668.47;;;10.47;82.53
34712;BME280;20941;42.408;25.634;2022-12-18T08:55:49;100689.28;;;10.61;83.74
34712;BME280;20941;42.408;25.634;2022-12-18T08:58:14;100665.09;;;10.44;84.40
34712;BME280;20941;42.408;25.634;2022-12-18T09:00:40;100693.75;;;10.67;84.72
34712;BME280;20941;42.408;25.634;2022-12-18T09:03:11;100709.78;;;10.72;87.31
34712;BME280;20941;42.408;25.634;2022-12-18T09:05:37;100710.34;;;10.79;86.79
34712;BME280;20941;42.408;25.634;2022-12-18T09:08:02;100706.69;;;10.73;85.97
34712;BME280;20941;42.408;25.634;2022-12-18T09:10:28;100711.19;;;10.80;87.02
34712;BME280;20941;42.408;25.634;2022-12-18T09:12:53;100705.84;;;10.83;89.56
34712;BME280;20941;42.408;25.634;2022-12-18T09:15:21;100695.72;;;10.77;89.53
34712;BME280;20941;42.408;25.634;2022-12-18T09:17:47;100697.34;;;10.94;91.53
34712;BME280;20941;42.408;25.634;2022-12-18T09:20:13;100708.91;;;10.87;87.63
34712;BME280;20941;42.408;25.634;2022-12-18T09:22:39;100674.66;;;10.54;87.90
34712;BME280;20941;42.408;25.634;2022-12-18T09:25:05;100721.34;;;10.75;87.55
34712;BME280;20941;42.408;25.634;2022-12-18T09:27:33;100703.31;;;10.71;86.19
34712;BME280;20941;42.408;25.634;2022-12-18T09:29:59;100706.13;;;10.71;85.52
34712;BME280;20941;42.408;25.634;2022-12-18T09:32:25;100720.78;;;10.63;86.47
34712;BME280;20941;42.408;25.634;2022-12-18T09:34:51;100723.00;;;10.76;87.66
34712;BME280;20941;42.408;25.634;2022-12-18T09:37:17;100702.22;;;10.57;89.31
34712;BME280;20941;42.408;25.634;2022-12-18T09:39:42;100716.81;;;10.80;89.70
34712;BME280;20941;42.408;25.634;2022-12-18T09:42:17;100729.72;;;10.91;90.14
34712;BME280;20941;42.408;25.634;2022-12-18T09:44:50;100701.06;;;10.73;90.93
34712;BME280;20941;42.408;25.634;2022-12-18T09:47:22;100728.63;;;10.82;92.01
34712;BME280;20941;42.408;25.634;2022-12-18T09:49:51;100743.28;;;10.68;95.29
34712;BME280;20941;42.408;25.634;2022-12-18T09:54:55;100730.34;;;10.36;100.00
34712;BME280;20941;42.408;25.634;2022-12-18T09:57:24;100749.72;;;10.33;100.00
34712;BME280;20941;42.408;25.634;2022-12-18T09:59:58;100758.97;;;10.12;100.00
34712;BME280;20941;42.408;25.634;2022-12-18T10:02:26;100742.03;;;9.87;100.00
34712;BME280;20941;42.408;25.634;2022-12-18T10:05:10;100738.41;;;9.96;100.00
34712;BME280;20941;42.408;25.634;2022-12-18T10:11:10;100764.28;;;9.99;100.00
34712;BME280;20941;42.408;25.634;2022-12-18T10:16:08;100760.06;;;10.06;100.00
34712;BME280;20941;42.408;25.634;2022-12-18T10:21:24;100753.59;;;9.95;100.00
34712;BME280;20941;42.408;25.634;2022-12-18T10:23:54;100758.09;;;9.91;100.00
34712;BME280;20941;42.408;25.634;2022-12-18T10:26:25;100739.22;;;9.71;97.54
34712;BME280;20941;42.408;25.634;2022-12-18T10:28:51;100747.06;;;9.69;95.96
34712;BME280;20941;42.408;25.634;2022-12-18T10:31:22;100763.34;;;9.67;95.93
34712;BME280;20941;42.408;25.634;2022-12-18T10:33:48;100757.69;;;9.57;95.58
34712;BME280;20941;42.408;25.634;2022-12-18T10:36:14;100742.47;;;9.47;94.38
34712;BME280;20941;42.408;25.634;2022-12-18T10:38:39;100753.41;;;9.44;95.71
34712;BME280;20941;42.408;25.634;2022-12-18T10:41:25;100735.72;;;9.43;97.32
34712;BME280;20941;42.408;25.634;2022-12-18T10:44:21;100765.81;;;9.48;97.35
34712;BME280;20941;42.408;25.634;2022-12-18T10:46:54;100737.97;;;9.41;95.13
34712;BME280;20941;42.408;25.634;2022-12-18T10:49:26;100753.16;;;9.45;94.33
34712;BME280;20941;42.408;25.634;2022-12-18T10:52:18;100752.63;;;9.54;92.90
34712;BME280;20941;42.408;25.634;2022-12-18T10:54:59;100766.34;;;9.45;94.16
34712;BME280;20941;42.408;25.634;2022-12-18T10:57:33;100759.03;;;9.44;94.49
34712;BME280;20941;42.408;25.634;2022-12-18T11:00:13;100741.34;;;9.38;96.49
34712;BME280;20941;42.408;25.634;2022-12-18T11:02:44;100762.63;;;9.29;99.03
34712;BME280;20941;42.408;25.634;2022-12-18T11:07:55;100769.81;;;9.09;100.00
34712;BME280;20941;42.408;25.634;2022-12-18T11:10:25;100769.75;;;8.99;100.00
34712;BME280;20941;42.408;25.634;2022-12-18T11:12:51;100750.34;;;8.97;100.00
34712;BME280;20941;42.408;25.634;2022-12-18T11:15:29;100777.09;;;9.05;100.00
34712;BME280;20941;42.408;25.634;2022-12-18T11:17:55;100735.94;;;8.78;100.00
34712;BME280;20941;42.408;25.634;2022-12-18T11:20:32;100766.66;;;8.95;100.00
34712;BME280;20941;42.408;25.634;2022-12-18T11:23:04;100757.91;;;8.92;100.00
34712;BME280;20941;42.408;25.634;2022-12-18T11:25:32;100764.66;;;8.96;99.04
34712;BME280;20941;42.408;25.634;2022-12-18T11:28:01;100772.81;;;8.97;100.00
34712;BME280;20941;42.408;25.634;2022-12-18T11:30:30;100764.03;;;8.83;100.00
34712;BME280;20941;42.408;25.634;2022-12-18T11:32:59;100772.22;;;8.90;100.00
34712;BME280;20941;42.408;25.634;2022-12-18T11:35:38;100733.91;;;8.69;100.00
34712;BME280;20941;42.408;25.634;2022-12-18T11:40:47;100773.78;;;8.71;100.00
34712;BME280;20941;42.408;25.634;2022-12-18T11:43:35;100789.25;;;8.78;100.00
34712;BME280;20941;42.408;25.634;2022-12-18T11:46:36;100775.75;;;8.75;100.00
34712;BME280;20941;42.408;25.634;2022-12-18T11:49:20;100790.97;;;8.85;100.00
34712;BME280;20941;42.408;25.634;2022-12-18T11:52:16;100800.66;;;9.04;100.00
34712;BME280;20941;42.408;25.634;2022-12-18T11:54:44;100783.81;;;9.04;100.00
34712;BME280;20941;42.408;25.634;2022-12-18T11:57:34;100797.69;;;9.26;100.00
34712;BME280;20941;42.408;25.634;2022-12-18T12:00:18;100799.72;;;9.36;100.00
34712;BME280;20941;42.408;25.634;2022-12-18T12:11:26;100791.81;;;9.33;100.00
34712;BME280;20941;42.408;25.634;2022-12-18T12:17:16;100800.31;;;9.43;100.00
34712;BME280;20941;42.408;25.634;2022-12-18T12:19:51;100811.56;;;9.48;100.00
34712;BME280;20941;42.408;25.634;2022-12-18T12:25:21;100824.47;;;9.39;100.00
34712;BME280;20941;42.408;25.634;2022-12-18T12:33:38;100814.25;;;9.23;100.00
34712;BME280;20941;42.408;25.634;2022-12-18T12:38:55;100819.72;;;9.02;100.00
34712;BME280;20941;42.408;25.634;2022-12-18T12:41:30;100806.47;;;8.97;100.00
34712;BME280;20941;42.408;25.634;2022-12-18T12:44:23;100815.44;;;8.89;100.00
34712;BME280;20941;42.408;25.634;2022-12-18T12:46:50;100821.25;;;8.82;100.00
34712;BME280;20941;42.408;25.634;2022-12-18T12:49:19;100820.41;;;8.82;100.00
34712;BME280;20941;42.408;25.634;2022-12-18T12:51:56;100800.00;;;8.59;100.00
34712;BME280;20941;42.408;25.634;2022-12-18T12:54:26;100824.47;;;8.64;100.00
34712;BME280;20941;42.408;25.634;2022-12-18T12:57:18;100820.00;;;8.68;100.00
34712;BME280;20941;42.408;25.634;2022-12-18T13:08:04;100844.09;;;8.64;100.00
34712;BME280;20941;42.408;25.634;2022-12-18T13:13:04;100867.19;;;8.76;97.13
34712;BME280;20941;42.408;25.634;2022-12-18T13:15:50;100845.13;;;8.53;93.07
34712;BME280;20941;42.408;25.634;2022-12-18T13:18:28;100858.59;;;8.56;92.72
34712;BME280;20941;42.408;25.634;2022-12-18T13:23:29;100877.16;;;8.62;95.43
34712;BME280;20941;42.408;25.634;2022-12-18T13:34:18;100886.16;;;8.64;93.92
34712;BME280;20941;42.408;25.634;2022-12-18T13:36:45;100895.88;;;8.51;96.68
34712;BME280;20941;42.408;25.634;2022-12-18T13:41:43;100882.00;;;8.44;96.15
34712;BME280;20941;42.408;25.634;2022-12-18T13:46:45;100896.56;;;8.41;87.21
34712;BME280;20941;42.408;25.634;2022-12-18T13:51:46;100912.38;;;8.47;86.78
34712;BME280;20941;42.408;25.634;2022-12-18T13:56:48;100901.44;;;8.29;87.28
34712;BME280;20941;42.408;25.634;2022-12-18T13:59:21;100921.16;;;8.34;89.89
34712;BME280;20941;42.408;25.634;2022-12-18T14:01:59;100919.47;;;8.33;90.57
34712;BME280;20941;42.408;25.634;2022-12-18T14:04:27;100922.25;;;8.33;91.89
34712;BME280;20941;42.408;25.634;2022-12-18T14:06:57;100925.34;;;8.31;94.62
34712;BME280;20941;42.408;25.634;2022-12-18T14:09:30;100917.16;;;8.30;97.32
34712;BME280;20941;42.408;25.634;2022-12-18T14:11:56;100914.38;;;8.30;100.00
34712;BME280;20941;42.408;25.634;2022-12-18T14:14:45;100914.66;;;8.06;100.00
34712;BME280;20941;42.408;25.634;2022-12-18T14:17:12;100938.50;;;8.31;100.00
34712;BME280;20941;42.408;25.634;2022-12-18T14:19:49;100927.88;;;8.11;100.00
34712;BME280;20941;42.408;25.634;2022-12-18T14:22:20;100957.78;;;8.27;100.00